La Junta, CO

2:28 AM MDT on May 23, 2015 (GMT -0600)
La Junta Municipal | | Change Station
CLOSE
Current Station
Airport
Location: La Junta,
Elevation: 4239 ft
Nearby Weather Stations
Active Advisory: Flood Warning

Elev 4239 ft 38.05 °N, 103.51 °W | Updated 35 minutes ago

Partly Cloudy
Partly Cloudy
54 °F
Feels Like 54 °F
N
9
Wind Variable Wind from West

Today
High -- | Low -- °F
--% Chance of Precip.
Yesterday
High -- | Low -- °F
Precip. -- in
5:38 AM 8:04 PM
Waxing Crescent, 28% visible
Pressure 29.82 in
Visibility 10.0 miles
Clouds Clear
Dew Point 50 °F
Humidity 86%
Rainfall 0.00 in
Snow Depth Not available.
UV 0 out of 12
Pollen 5.30 out of 12
Air Quality Not available.
Flu Activity Sporadic
METAR KLHX 230753Z AUTO 27008KT 10SM CLR 12/10 A2995 RMK AO2 SLP098 T01220100

More Conditions Fewer Conditions

Pressure 29.82 in
Visibility 10.0 miles
Clouds Clear
Dew Point 50 °F
Humidity 86%
Rainfall 0.00 in
Snow Depth Not available.
UV 0 out of 12
Pollen 5.30 out of 12
Air Quality Not available.
Flu Activity Sporadic
METAR KLHX 230753Z AUTO 27008KT 10SM CLR 12/10 A2995 RMK AO2 SLP098 T01220100

More Conditions Fewer Conditions

10-Day Weather Forecast

Almanac

Astronomy

May. 23, 2015 Rise Set
Actual Time
Civil Twilight
Nautical Twilight
Astronomical Twilight
Moon
Length of Visible Light
Length of Day
Tomorrow will be .
, % of the Moon is Illuminated

Today's Extremes

State Highs State Lows

Community

WunderPhotos

Upload Photos

1,823,401 photos uploaded!

WunderBlogs® & News

Nearby

Air Quality

  Air Quality AQ Index Pollutant
Not available.

Snow Depth

Station Depth Elevation

Earthquake Activity

City Distance Mag. Time & Date
Minimum magnitude displayed is 2.5.

Coastal Water Temperatures

Place Temperature

Stations

Nearby Weather Stations

Station Location Temp. Windchill Dew Point Humidity Wind Precip. Elev Updated Type
                   
Flood Warning
Statement as of 8:15 PM MDT on May 22, 2015

The Flood Warning continues for
the Arkansas River at La Junta.
* Until further notice... or until the warning is cancelled.
* At 7:15 PM Friday the stage was 11.9 feet.
* Flood stage is 11.0 feet.
* Minor flooding is occurring and minor flooding is forecast.
* Forecast... the river will continue rising to near 12.0 feet by
midmorning Sunday then begin falling.
* Impact... at 12.0 feet... flood waters threaten Highway 194 east of La
Junta.


Lat... Lon 3804 10356 3808 10341 3812 10321 3805 10321
      3802 10337 3798 10361